Time;durP1;ratioP1;P1;durP2;ratioP2;P2;SDS_P1;SDS_P2;PMS_P1;PMS_P2;Temp;Humidity;BMP_temperature;BMP_pressure;BME280_temperature;BME280_humidity;BME280_pressure;Samples;Min_cycle;Max_cycle;Signal;HPM_P1;HPM_P2
2023/12/03 00:00:40;;;;;;;40.53;19.90;;;4.40;99.90;;;;;;5093283;28;20078;-73
2023/12/03 00:03:07;;;;;;;33.50;18.05;;;4.20;99.90;;;;;;5075770;28;20020;-73
2023/12/03 00:05:35;;;;;;;35.08;18.65;;;4.20;99.90;;;;;;5093352;28;20463;-72
2023/12/03 00:08:02;;;;;;;33.30;15.95;;;4.10;99.90;;;;;;5093670;28;20446;-75
2023/12/03 00:10:28;;;;;;;29.80;15.27;;;3.90;99.90;;;;;;5093820;28;20028;-73
2023/12/03 00:12:54;;;;;;;31.88;14.93;;;3.90;99.90;;;;;;5093615;28;20093;-74
2023/12/03 00:15:19;;;;;;;34.42;14.90;;;3.80;99.90;;;;;;5093767;28;20020;-74
2023/12/03 00:17:45;;;;;;;34.25;16.75;;;3.80;99.90;;;;;;5093400;28;20024;-72
2023/12/03 00:20:11;;;;;;;33.50;16.38;;;3.90;99.90;;;;;;5093204;28;20020;-72
2023/12/03 00:22:37;;;;;;;32.13;16.08;;;3.90;99.90;;;;;;5093095;28;20036;-74
2023/12/03 00:25:03;;;;;;;30.85;15.45;;;3.90;99.90;;;;;;5092998;28;20342;-74
2023/12/03 00:27:29;;;;;;;30.58;14.95;;;4.00;99.90;;;;;;5092925;28;20028;-73
2023/12/03 00:29:54;;;;;;;33.05;16.75;;;4.00;99.90;;;;;;5093505;28;20335;-74
2023/12/03 00:32:20;;;;;;;41.97;17.75;;;3.90;99.90;;;;;;5093029;28;20481;-73
2023/12/03 00:34:46;;;;;;;34.70;14.55;;;3.90;99.90;;;;;;5093394;28;20094;-73
2023/12/03 00:37:12;;;;;;;27.25;12.95;;;3.90;99.90;;;;;;5092916;28;20020;-75
2023/12/03 00:39:37;;;;;;;24.00;12.38;;;3.80;99.90;;;;;;5092743;28;20024;-74
2023/12/03 00:42:03;;;;;;;25.02;10.63;;;3.80;99.90;;;;;;5092650;28;20108;-74
2023/12/03 00:44:29;;;;;;;24.42;11.68;;;3.70;99.90;;;;;;5092633;28;20351;-72
2023/12/03 00:46:55;;;;;;;26.25;12.57;;;3.70;99.90;;;;;;5092447;28;20032;-74
2023/12/03 00:49:20;;;;;;;31.65;15.88;;;3.70;99.90;;;;;;5096339;28;20111;-72
2023/12/03 00:51:46;;;;;;;28.63;13.70;;;3.80;99.90;;;;;;5097102;28;20107;-72
2023/12/03 00:54:12;;;;;;;25.55;12.35;;;3.80;99.90;;;;;;5096709;28;20077;-71
2023/12/03 00:56:37;;;;;;;23.33;11.88;;;3.70;99.90;;;;;;5096922;28;20459;-74
2023/12/03 00:59:03;;;;;;;27.98;12.93;;;3.70;99.90;;;;;;5096879;28;20032;-73
2023/12/03 01:01:29;;;;;;;26.30;12.55;;;3.70;99.90;;;;;;5096748;28;20040;-73
2023/12/03 01:03:55;;;;;;;28.73;12.50;;;3.70;99.90;;;;;;5096460;28;20038;-72
2023/12/03 01:06:21;;;;;;;26.48;12.77;;;3.70;99.90;;;;;;5092379;28;20028;-73
2023/12/03 01:08:46;;;;;;;25.38;12.68;;;3.80;99.90;;;;;;5078368;28;20027;-73
2023/12/03 01:11:12;;;;;;;23.65;11.25;;;3.80;99.90;;;;;;5093504;28;20028;-73
2023/12/03 01:13:38;;;;;;;24.83;12.25;;;3.80;99.90;;;;;;5096671;28;20020;-72
2023/12/03 01:16:04;;;;;;;28.33;13.00;;;3.70;99.90;;;;;;5062385;28;20029;-74
2023/12/03 01:18:30;;;;;;;23.98;13.02;;;3.70;99.90;;;;;;5094016;28;20454;-74
2023/12/03 01:20:55;;;;;;;24.55;11.13;;;3.70;99.90;;;;;;5096630;28;20028;-74
2023/12/03 01:23:21;;;;;;;23.83;10.68;;;3.70;99.90;;;;;;5096141;28;20031;-73
2023/12/03 01:25:47;;;;;;;25.60;12.82;;;3.70;99.90;;;;;;5078403;28;20024;-74
2023/12/03 01:28:13;;;;;;;21.92;11.45;;;3.80;99.90;;;;;;5096338;28;20458;-74
2023/12/03 01:30:39;;;;;;;22.80;11.35;;;3.80;99.90;;;;;;5096587;28;20439;-74
2023/12/03 01:33:04;;;;;;;18.88;9.63;;;3.80;99.90;;;;;;5093787;28;20017;-72
2023/12/03 01:35:30;;;;;;;23.13;10.25;;;3.80;99.90;;;;;;5097696;28;20100;-74
2023/12/03 01:37:56;;;;;;;32.05;15.60;;;3.70;99.90;;;;;;5096165;28;20024;-72
2023/12/03 01:40:22;;;;;;;27.95;13.55;;;3.80;99.90;;;;;;5096139;28;20028;-72
2023/12/03 01:42:48;;;;;;;29.50;14.43;;;3.70;99.90;;;;;;5096216;28;20043;-72
2023/12/03 01:45:14;;;;;;;29.08;12.70;;;3.60;99.90;;;;;;5096433;28;20028;-71
2023/12/03 01:47:39;;;;;;;25.13;12.32;;;3.60;99.90;;;;;;5096034;28;20024;-72
2023/12/03 01:50:07;;;;;;;27.48;12.75;;;3.60;99.90;;;;;;5095677;28;20028;-72
2023/12/03 01:52:35;;;;;;;34.55;15.68;;;3.70;99.90;;;;;;5096257;28;20084;-73
2023/12/03 01:55:03;;;;;;;24.27;11.73;;;3.70;99.90;;;;;;5095800;28;20028;-73
2023/12/03 01:57:30;;;;;;;22.25;10.05;;;3.70;99.90;;;;;;5096067;28;20442;-74
2023/12/03 01:59:56;;;;;;;30.58;12.23;;;3.70;99.90;;;;;;5075431;28;20027;-75
2023/12/03 02:02:22;;;;;;;28.25;11.30;;;3.70;99.90;;;;;;5095694;28;20063;-73
2023/12/03 02:04:48;;;;;;;24.30;10.57;;;3.70;99.90;;;;;;5095577;28;20012;-73
2023/12/03 02:07:14;;;;;;;24.23;11.57;;;3.70;99.90;;;;;;5095413;28;20024;-74
2023/12/03 02:09:41;;;;;;;25.40;12.07;;;3.70;99.90;;;;;;5077614;28;20026;-73
2023/12/03 02:12:07;;;;;;;29.10;12.50;;;3.70;99.90;;;;;;5095456;28;20028;-74
2023/12/03 02:14:33;;;;;;;27.80;11.63;;;3.70;99.90;;;;;;5095798;28;20498;-73
2023/12/03 02:16:59;;;;;;;30.58;11.75;;;3.60;99.90;;;;;;5077411;28;20110;-73
2023/12/03 02:19:25;;;;;;;20.70;9.48;;;3.70;99.90;;;;;;5094994;28;20020;-74
2023/12/03 02:21:51;;;;;;;21.58;9.02;;;3.60;99.90;;;;;;5095535;28;20042;-72
2023/12/03 02:24:17;;;;;;;24.55;10.32;;;3.60;99.90;;;;;;5094863;28;20102;-73
2023/12/03 02:26:43;;;;;;;21.35;9.77;;;3.50;99.90;;;;;;5095280;28;20073;-72
2023/12/03 02:29:08;;;;;;;16.00;7.18;;;3.50;99.90;;;;;;5095232;28;20028;-73
2023/12/03 02:31:34;;;;;;;23.73;10.18;;;3.50;99.90;;;;;;5095071;28;20105;-72
2023/12/03 02:34:10;;;;;;;20.80;10.30;;;3.50;99.90;;;;;;5094524;28;20401;-72
2023/12/03 02:36:37;;;;;;;23.35;9.65;;;3.50;99.90;;;;;;5094269;28;20343;-73
2023/12/03 02:39:03;;;;;;;15.95;7.60;;;3.50;99.90;;;;;;5094655;28;20370;-73
2023/12/03 02:41:29;;;;;;;18.80;8.15;;;3.60;99.90;;;;;;5094801;28;20028;-73
2023/12/03 02:43:54;;;;;;;16.52;8.88;;;3.40;99.90;;;;;;5094601;28;20064;-73
2023/12/03 02:46:20;;;;;;;18.38;9.55;;;3.80;99.90;;;;;;5094965;28;20437;-73
2023/12/03 02:48:46;;;;;;;16.00;7.72;;;3.80;99.90;;;;;;5093759;28;20486;-71
2023/12/03 02:51:12;;;;;;;16.55;8.52;;;3.40;99.90;;;;;;5094435;28;20024;-72
2023/12/03 02:53:39;;;;;;;17.83;7.07;;;3.40;99.90;;;;;;5094632;28;20047;-73
2023/12/03 02:56:06;;;;;;;16.38;7.80;;;3.40;99.90;;;;;;5094577;28;20043;-72
2023/12/03 02:58:32;;;;;;;16.15;7.70;;;3.30;99.90;;;;;;5094603;28;20071;-72
2023/12/03 03:00:58;;;;;;;15.35;6.90;;;;;;;;;;5099260;28;20151;-73
2023/12/03 03:03:24;;;;;;;15.13;7.13;;;;;;;;;;5114724;28;20023;-73
2023/12/03 03:05:50;;;;;;;13.50;7.38;;;;;;;;;;5114734;28;20024;-73
2023/12/03 03:08:17;;;;;;;14.48;6.80;;;;;;;;;;5106749;28;20095;-72
2023/12/03 03:10:43;;;;;;;16.40;7.93;;;;;;;;;;5093766;28;20366;-73
2023/12/03 03:13:09;;;;;;;18.25;8.15;;;;;;;;;;5094135;28;20027;-73
2023/12/03 03:15:35;;;;;;;17.02;9.50;;;;;;;;;;5094314;28;20095;-71
2023/12/03 03:18:01;;;;;;;15.88;7.93;;;;;;;;;;5094422;28;20027;-72
2023/12/03 03:20:28;;;;;;;20.83;10.05;;;;;;;;;;5094377;28;20103;-73
2023/12/03 03:22:54;;;;;;;16.35;8.25;;;;;;;;;;5094022;28;20020;-70
2023/12/03 03:25:20;;;;;;;12.75;7.03;;;;;;;;;;5093294;28;20026;-73
2023/12/03 03:27:46;;;;;;;14.73;7.22;;;3.20;99.90;;;;;;5093541;28;20008;-73
2023/12/03 03:30:12;;;;;;;15.48;8.15;;;3.30;99.90;;;;;;5094577;28;20362;-72
2023/12/03 03:32:37;;;;;;;13.68;7.10;;;3.50;99.90;;;;;;5093889;28;20031;-73
2023/12/03 03:35:03;;;;;;;14.70;7.07;;;3.30;99.90;;;;;;5094184;28;20095;-70
2023/12/03 03:37:30;;;;;;;16.38;8.85;;;;;;;;;;5097580;28;20077;-73
2023/12/03 03:39:56;;;;;;;14.45;7.40;;;3.10;99.90;;;;;;5094798;28;20516;-73
2023/12/03 03:42:21;;;;;;;13.73;7.10;;;3.10;99.90;;;;;;5095284;28;20027;-73
2023/12/03 03:44:47;;;;;;;13.45;7.38;;;3.00;99.90;;;;;;5094184;28;20603;-73
2023/12/03 03:47:13;;;;;;;14.45;10.02;;;2.90;99.90;;;;;;5093523;28;20016;-72
2023/12/03 03:49:40;;;;;;;14.68;7.90;;;;;;;;;;5093096;28;20024;-72
2023/12/03 03:52:06;;;;;;;15.25;8.50;;;2.80;99.90;;;;;;5093447;28;20024;-72
2023/12/03 03:54:32;;;;;;;15.02;7.70;;;3.10;99.90;;;;;;5093359;28;20035;-72
2023/12/03 03:56:58;;;;;;;16.17;7.45;;;3.20;99.90;;;;;;5093043;28;20043;-72
2023/12/03 03:59:24;;;;;;;16.92;8.40;;;2.70;99.90;;;;;;5093806;28;20031;-75
2023/12/03 04:01:50;;;;;;;15.05;8.23;;;3.10;99.90;;;;;;5093238;28;20040;-71
2023/12/03 04:04:16;;;;;;;12.80;7.03;;;3.10;99.90;;;;;;5093293;28;20027;-72
2023/12/03 04:06:46;;;;;;;14.35;7.43;;;3.10;99.90;;;;;;5092896;28;20020;-73
2023/12/03 04:09:13;;;;;;;14.52;6.93;;;3.00;99.90;;;;;;5093182;28;20016;-72
2023/12/03 04:11:44;;;;;;;14.63;6.97;;;3.10;99.90;;;;;;5093430;28;20024;-73
2023/12/03 04:14:12;;;;;;;15.95;8.05;;;3.20;99.90;;;;;;5093055;28;20016;-72
2023/12/03 04:16:38;;;;;;;15.18;9.25;;;3.50;99.90;;;;;;5093178;28;20024;-74
2023/12/03 04:19:05;;;;;;;13.15;8.00;;;2.80;99.90;;;;;;5093286;28;20486;-74
2023/12/03 04:21:31;;;;;;;15.45;7.93;;;3.50;99.90;;;;;;5092927;28;20032;-73
2023/12/03 04:23:57;;;;;;;15.35;7.53;;;3.10;99.90;;;;;;5096210;28;20466;-73
2023/12/03 04:26:24;;;;;;;14.35;7.65;;;3.10;99.90;;;;;;5097572;28;20486;-72
2023/12/03 04:28:50;;;;;;;13.05;6.88;;;;;;;;;;5097329;28;20055;-74
2023/12/03 04:31:26;;;;;;;15.10;7.93;;;3.30;99.90;;;;;;5097604;28;20031;-72
2023/12/03 04:33:53;;;;;;;12.30;6.45;;;3.00;99.90;;;;;;5096946;28;20058;-74
2023/12/03 04:36:26;;;;;;;14.02;6.10;;;3.00;99.90;;;;;;5096855;28;20031;-74
2023/12/03 04:38:52;;;;;;;14.27;6.55;;;;;;;;;;5097026;28;20028;-72
2023/12/03 04:41:19;;;;;;;13.50;6.57;;;;;;;;;;5096790;28;20020;-73
2023/12/03 04:43:45;;;;;;;12.07;6.13;;;;;;;;;;5097164;28;20036;-72
2023/12/03 04:46:11;;;;;;;17.02;7.32;;;3.20;99.90;;;;;;5096908;28;20041;-72
2023/12/03 04:48:39;;;;;;;17.00;7.25;;;3.00;99.90;;;;;;5096764;28;20028;-72
2023/12/03 04:51:05;;;;;;;11.88;7.28;;;3.20;99.90;;;;;;5096710;28;20475;-73
2023/12/03 04:53:31;;;;;;;15.40;7.28;;;;;;;;;;5096791;28;20016;-72
2023/12/03 04:55:57;;;;;;;17.35;7.60;;;2.70;99.90;;;;;;5096489;28;20069;-73
2023/12/03 04:58:22;;;;;;;15.65;7.53;;;3.10;99.90;;;;;;5096617;28;20020;-71
2023/12/03 05:00:49;;;;;;;15.45;7.18;;;;;;;;;;5094725;28;20078;-74
2023/12/03 05:03:15;;;;;;;15.18;7.40;;;;;;;;;;5096210;28;20470;-72
2023/12/03 05:05:41;;;;;;;16.83;6.82;;;;;;;;;;5096561;28;20024;-72
2023/12/03 05:08:07;;;;;;;20.30;7.78;;;3.20;99.90;;;;;;5096008;28;20020;-73
2023/12/03 05:10:33;;;;;;;20.88;8.50;;;2.90;99.90;;;;;;5096208;28;20022;-73
2023/12/03 05:12:59;;;;;;;23.33;9.55;;;2.70;99.90;;;;;;5096378;28;20024;-73
2023/12/03 05:15:25;;;;;;;19.70;8.07;;;;;;;;;;5096308;28;20028;-72
2023/12/03 05:17:51;;;;;;;17.52;10.35;;;;;;;;;;5096225;28;20565;-75
2023/12/03 05:20:17;;;;;;;32.63;13.70;;;;;;;;;;5096046;28;20073;-72
2023/12/03 05:22:43;;;;;;;49.75;18.05;;;;;;;;;;5095624;28;20458;-72
2023/12/03 05:25:10;;;;;;;41.53;14.18;;;;;;;;;;5096242;28;20028;-73
2023/12/03 05:27:37;;;;;;;27.92;13.27;;;2.80;99.90;;;;;;5096098;28;20028;-72
2023/12/03 05:30:04;;;;;;;16.33;7.97;;;2.80;99.90;;;;;;5095773;28;20031;-73
2023/12/03 05:32:30;;;;;;;16.27;7.75;;;;;;;;;;5095966;28;20457;-72
2023/12/03 05:34:56;;;;;;;18.67;8.25;;;;;;;;;;5094980;28;20458;-73
2023/12/03 05:37:22;;;;;;;19.27;8.80;;;;;;;;;;5095555;28;20028;-73
2023/12/03 05:39:48;;;;;;;16.20;7.95;;;;;;;;;;5095853;28;20032;-73
2023/12/03 05:42:14;;;;;;;23.60;9.43;;;;;;;;;;5095412;28;20052;-72
2023/12/03 05:44:40;;;;;;;26.25;9.07;;;;;;;;;;5095516;28;20141;-73
2023/12/03 05:47:06;;;;;;;34.97;9.13;;;;;;;;;;5095746;28;20016;-73
2023/12/03 05:49:32;;;;;;;42.25;11.70;;;3.30;99.90;;;;;;5095377;28;20462;-71
2023/12/03 05:51:58;;;;;;;33.35;10.27;;;2.70;99.90;;;;;;5094913;28;20031;-73
2023/12/03 05:54:24;;;;;;;41.20;16.90;;;2.70;99.90;;;;;;5095088;28;20101;-74
2023/12/03 05:56:50;;;;;;;21.73;10.45;;;;;;;;;;5095283;28;20035;-73
2023/12/03 05:59:16;;;;;;;28.15;13.50;;;;;;;;;;5094918;28;20028;-74
2023/12/03 06:01:42;;;;;;;23.38;11.00;;;;;;;;;;5095044;28;20075;-73
2023/12/03 06:04:09;;;;;;;20.40;8.55;;;;;;;;;;5089939;28;20019;-72
2023/12/03 06:06:35;;;;;;;18.15;8.23;;;;;;;;;;5095627;28;20073;-73
2023/12/03 06:09:02;;;;;;;19.13;8.52;;;;;;;;;;5094803;28;20527;-73
2023/12/03 06:11:28;;;;;;;17.08;8.43;;;;;;;;;;5094931;28;20418;-71
2023/12/03 06:13:56;;;;;;;18.92;8.55;;;2.90;99.90;;;;;;5095074;28;20016;-73
2023/12/03 06:16:23;;;;;;;20.05;8.45;;;;;;;;;;5092347;28;20039;-73
2023/12/03 06:18:49;;;;;;;33.28;10.80;;;;;;;;;;5094344;28;20012;-71
2023/12/03 06:21:16;;;;;;;26.30;10.43;;;;;;;;;;5095172;28;20024;-72
2023/12/03 06:23:42;;;;;;;25.60;10.82;;;;;;;;;;5094721;28;20024;-73
2023/12/03 06:26:08;;;;;;;27.65;10.00;;;1.70;99.90;;;;;;5094849;28;20091;-73
2023/12/03 06:28:34;;;;;;;26.48;12.30;;;;;;;;;;5094577;28;20371;-73
2023/12/03 06:31:00;;;;;;;32.50;11.68;;;;;;;;;;5094422;28;20024;-72
2023/12/03 06:33:26;;;;;;;35.85;13.88;;;;;;;;;;5094170;28;20016;-73
2023/12/03 06:35:53;;;;;;;26.83;11.88;;;2.90;99.90;;;;;;5094551;28;20016;-71
2023/12/03 06:38:19;;;;;;;37.40;13.80;;;;;;;;;;5094573;28;20036;-72
2023/12/03 06:40:46;;;;;;;41.67;16.52;;;;;;;;;;5094548;28;20028;-73
2023/12/03 06:43:12;;;;;;;49.10;17.75;;;;;;;;;;5094794;28;20028;-71
2023/12/03 06:45:38;;;;;;;67.85;26.65;;;;;;;;;;5094088;28;20074;-73
2023/12/03 06:48:04;;;;;;;40.65;15.77;;;;;;;;;;5093766;28;20023;-72
2023/12/03 06:50:30;;;;;;;51.05;19.13;;;;;;;;;;5094742;28;20020;-71
2023/12/03 06:52:56;;;;;;;42.42;17.55;;;;;;;;;;5095048;28;20048;-72
2023/12/03 06:55:22;;;;;;;49.95;17.90;;;;;;;;;;5093980;28;20473;-73
2023/12/03 06:57:48;;;;;;;43.08;15.57;;;3.00;99.90;;;;;;5094224;28;20035;-73
2023/12/03 07:00:14;;;;;;;44.83;17.67;;;3.00;99.90;;;;;;5094315;28;20234;-72
2023/12/03 07:02:40;;;;;;;35.50;16.13;;;3.00;99.90;;;;;;5093923;28;20335;-72
2023/12/03 07:05:06;;;;;;;31.55;12.50;;;3.10;99.90;;;;;;5094144;28;20027;-72
2023/12/03 07:07:32;;;;;;;38.47;15.73;;;;;;;;;;5093570;28;20031;-73
2023/12/03 07:09:58;;;;;;;50.10;19.67;;;;;;;;;;5093712;28;20024;-72
2023/12/03 07:12:24;;;;;;;33.88;15.30;;;;;;;;;;5094033;28;20028;-72
2023/12/03 07:14:50;;;;;;;57.28;22.10;;;;;;;;;;5093645;28;20042;-72
2023/12/03 07:17:16;;;;;;;47.08;21.23;;;3.00;99.90;;;;;;5094506;28;20451;-73
2023/12/03 07:19:45;;;;;;;35.05;13.85;;;3.10;99.90;;;;;;5093739;28;20024;-73
2023/12/03 07:22:12;;;;;;;29.33;13.00;;;;;;;;;;5093418;28;20039;-72
2023/12/03 07:24:39;;;;;;;19.65;8.82;;;3.10;99.90;;;;;;5093457;28;20016;-73
2023/12/03 07:27:05;;;;;;;25.63;10.90;;;3.10;99.90;;;;;;5093675;28;20080;-71
2023/12/03 07:29:31;;;;;;;24.73;9.48;;;3.10;99.90;;;;;;5093614;28;20016;-71
2023/12/03 07:31:58;;;;;;;19.75;9.30;;;3.20;99.90;;;;;;5093594;28;20030;-71
2023/12/03 07:34:25;;;;;;;23.63;9.52;;;3.20;99.90;;;;;;5093224;28;20366;-73
2023/12/03 07:36:52;;;;;;;24.30;11.38;;;3.20;99.90;;;;;;5093330;28;20016;-70
2023/12/03 07:39:18;;;;;;;26.25;10.00;;;3.20;99.90;;;;;;5093694;28;20026;-71
2023/12/03 07:41:53;;;;;;;28.27;10.15;;;3.10;99.90;;;;;;5093239;28;20036;-72
2023/12/03 07:44:19;;;;;;;42.05;17.17;;;3.10;99.90;;;;;;5093311;28;20086;-73
2023/12/03 07:46:45;;;;;;;28.23;9.65;;;;;;;;;;5092911;28;20374;-72
2023/12/03 07:49:12;;;;;;;17.58;6.15;;;;;;;;;;5093625;28;20020;-71
2023/12/03 07:51:37;;;;;;;17.88;7.30;;;3.00;99.50;;;;;;5093760;28;20053;-72
2023/12/03 07:54:03;;;;;;;13.52;5.93;;;2.90;99.90;;;;;;5093795;28;20103;-72
2023/12/03 07:56:39;;;;;;;16.95;7.22;;;3.00;97.10;;;;;;5093393;28;20451;-72
2023/12/03 07:59:06;;;;;;;21.70;7.78;;;3.00;96.80;;;;;;5094004;28;20028;-73
2023/12/03 08:01:32;;;;;;;28.58;10.82;;;3.00;96.90;;;;;;5091683;28;20479;-72
2023/12/03 08:03:58;;;;;;;12.43;5.80;;;3.10;97.30;;;;;;5093556;28;20039;-73
2023/12/03 08:06:24;;;;;;;25.00;9.65;;;3.10;96.60;;;;;;5093754;28;20028;-74
2023/12/03 08:08:53;;;;;;;21.52;10.07;;;3.10;97.10;;;;;;5093471;28;20031;-74
2023/12/03 08:11:19;;;;;;;27.63;10.15;;;;;;;;;;5093533;28;20052;-73
2023/12/03 08:13:46;;;;;;;41.20;13.98;;;3.20;97.60;;;;;;5093617;28;20020;-72
2023/12/03 08:16:12;;;;;;;56.10;19.70;;;;;;;;;;5093477;28;20021;-72
2023/12/03 08:18:38;;;;;;;39.20;14.63;;;3.40;98.90;;;;;;5093325;28;20016;-72
2023/12/03 08:21:04;;;;;;;28.98;12.23;;;3.40;99.90;;;;;;5093641;28;20750;-71
2023/12/03 08:23:34;;;;;;;31.92;11.15;;;3.60;99.90;;;;;;5092765;28;20024;-72
2023/12/03 08:26:02;;;;;;;30.10;11.50;;;3.60;99.90;;;;;;5093204;28;20455;-74
2023/12/03 08:28:28;;;;;;;25.25;10.63;;;;;;;;;;5093483;28;20027;-72
2023/12/03 08:30:54;;;;;;;19.60;9.05;;;3.60;99.90;;;;;;5093463;28;20085;-72
2023/12/03 08:33:20;;;;;;;25.75;10.13;;;3.50;99.90;;;;;;5092801;28;20476;-73
2023/12/03 08:35:46;;;;;;;17.20;8.30;;;;;;;;;;5072774;28;20070;-74
2023/12/03 08:38:12;;;;;;;25.42;10.32;;;3.50;99.90;;;;;;5091883;28;20016;-72
2023/12/03 08:40:39;;;;;;;29.58;11.43;;;;;;;;;;5092897;28;20028;-73
2023/12/03 08:43:05;;;;;;;23.13;9.75;;;7.40;99.90;;;;;;5092997;28;20028;-73
2023/12/03 08:45:32;;;;;;;19.58;8.32;;;3.30;99.90;;;;;;5093192;28;20036;-71
2023/12/03 08:48:00;;;;;;;24.10;9.32;;;3.30;99.90;;;;;;5093127;28;20024;-72
2023/12/03 08:50:28;;;;;;;28.05;11.27;;;3.60;99.90;;;;;;5092003;28;20032;-72
2023/12/03 08:52:54;;;;;;;28.58;10.65;;;3.30;99.90;;;;;;5090341;28;20040;-74
2023/12/03 08:55:20;;;;;;;20.60;7.65;;;3.50;99.90;;;;;;5075396;28;20068;-72
2023/12/03 08:57:46;;;;;;;40.17;14.60;;;3.40;99.90;;;;;;5093586;28;20024;-74
2023/12/03 09:00:13;;;;;;;28.08;11.05;;;3.50;99.10;;;;;;5093133;28;20366;-71
2023/12/03 09:02:39;;;;;;;24.88;9.57;;;3.40;97.50;;;;;;5093195;28;20119;-72
2023/12/03 09:05:05;;;;;;;24.55;9.43;;;3.40;95.60;;;;;;5093182;28;20077;-73
2023/12/03 09:07:32;;;;;;;20.80;7.95;;;;;;;;;;5093101;28;20025;-71
2023/12/03 09:09:58;;;;;;;27.25;11.05;;;;;;;;;;5096146;28;20076;-73
2023/12/03 09:12:24;;;;;;;43.80;16.95;;;;;;;;;;5096911;28;20031;-73
2023/12/03 09:14:50;;;;;;;38.13;15.30;;;;;;;;;;5096699;28;20020;-72
2023/12/03 09:17:16;;;;;;;16.38;7.90;;;;;;;;;;5096495;28;20020;-72
2023/12/03 09:19:42;;;;;;;22.08;9.13;;;3.50;95.00;;;;;;5096596;28;20102;-71
2023/12/03 09:22:08;;;;;;;28.23;10.73;;;3.70;99.90;;;;;;5096494;28;20459;-72
2023/12/03 09:24:34;;;;;;;36.42;14.00;;;3.50;99.90;;;;;;5096181;28;20073;-73
2023/12/03 09:27:00;;;;;;;26.15;10.63;;;;;;;;;;5097169;28;20032;-72
2023/12/03 09:29:26;;;;;;;62.55;20.63;;;;;;;;;;5096370;28;20378;-73
2023/12/03 09:31:52;;;;;;;64.07;20.05;;;;;;;;;;5096552;28;20031;-72
2023/12/03 09:34:18;;;;;;;70.13;28.27;;;;;;;;;;5096506;28;20032;-74
2023/12/03 09:36:44;;;;;;;35.25;16.88;;;;;;;;;;5096239;28;20020;-72
2023/12/03 09:39:10;;;;;;;40.08;17.27;;;3.70;95.60;;;;;;5096133;28;20489;-72
2023/12/03 09:41:44;;;;;;;51.60;18.38;;;3.70;96.20;;;;;;5096491;28;20036;-72
2023/12/03 09:44:21;;;;;;;58.80;20.73;;;3.90;97.20;;;;;;5057256;28;20100;-73
2023/12/03 09:46:53;;;;;;;40.00;16.80;;;3.90;96.10;;;;;;5096024;28;20020;-72
2023/12/03 09:49:22;;;;;;;40.10;16.38;;;3.80;96.20;;;;;;5096144;28;20475;-73
2023/12/03 09:51:48;;;;;;;39.70;16.98;;;;;;;;;;5095679;28;20039;-72
2023/12/03 09:54:14;;;;;;;26.17;12.15;;;;;;;;;;5095837;28;20017;-71
2023/12/03 09:56:41;;;;;;;45.42;15.27;;;;;;;;;;5077399;28;20358;-71
2023/12/03 09:59:10;;;;;;;37.97;15.75;;;3.80;96.90;;;;;;5095593;28;20058;-74
2023/12/03 10:01:40;;;;;;;59.92;19.73;;;3.90;97.00;;;;;;5077281;28;20131;-72
2023/12/03 10:04:06;;;;;;;25.50;9.75;;;;;;;;;;5095548;28;20042;-71
2023/12/03 10:06:34;;;;;;;32.60;12.65;;;3.70;95.40;;;;;;5095633;28;20023;-72
2023/12/03 10:09:03;;;;;;;28.13;10.32;;;3.80;94.50;;;;;;5095945;28;20457;-73
2023/12/03 10:11:38;;;;;;;36.67;10.70;;;3.60;93.40;;;;;;5095615;28;20066;-73
2023/12/03 10:14:06;;;;;;;37.40;12.13;;;;;;;;;;5094522;28;20112;-72
2023/12/03 10:16:33;;;;;;;23.05;9.18;;;3.70;93.40;;;;;;5095909;28;20016;-74
2023/12/03 10:18:59;;;;;;;22.80;8.93;;;;;;;;;;5095114;28;20031;-73
2023/12/03 10:21:27;;;;;;;23.17;9.73;;;;;;;;;;5095326;28;20040;-74
2023/12/03 10:24:00;;;;;;;26.30;10.43;;;4.30;99.90;;;;;;5077065;28;20028;-72
2023/12/03 10:26:27;;;;;;;25.40;10.82;;;;;;;;;;5077281;28;20073;-73
2023/12/03 10:28:54;;;;;;;42.38;16.45;;;;;;;;;;5076508;28;20036;-73
2023/12/03 10:31:20;;;;;;;28.48;11.15;;;;;;;;;;5095015;28;20095;-72
2023/12/03 10:33:46;;;;;;;31.75;12.23;;;;;;;;;;5077066;28;20028;-72
2023/12/03 10:36:13;;;;;;;44.63;14.20;;;4.40;92.70;;;;;;5095587;28;20028;-73
2023/12/03 10:38:43;;;;;;;41.22;15.85;;;4.40;92.90;;;;;;5043204;28;20056;-73
2023/12/03 10:41:14;;;;;;;81.22;30.63;;;4.50;93.10;;;;;;5094920;28;20116;-72
2023/12/03 10:43:42;;;;;;;26.17;11.88;;;4.50;93.40;;;;;;5094957;28;20043;-73
2023/12/03 10:46:12;;;;;;;33.15;14.77;;;4.60;99.90;;;;;;5094672;28;20047;-72
2023/12/03 10:48:41;;;;;;;35.08;14.52;;;4.60;93.20;;;;;;5094670;28;20021;-72
2023/12/03 10:51:09;;;;;;;27.27;11.82;;;4.70;99.90;;;;;;5095165;28;20114;-72
2023/12/03 10:53:37;;;;;;;31.75;14.70;;;4.50;94.00;;;;;;5094463;28;20067;-73
2023/12/03 10:56:08;;;;;;;19.85;9.90;;;4.50;94.30;;;;;;5094622;28;20026;-72
2023/12/03 10:58:39;;;;;;;29.23;11.90;;;4.20;94.00;;;;;;5076758;28;20043;-72
2023/12/03 11:01:14;;;;;;;33.58;14.40;;;4.20;94.20;;;;;;5093508;28;20132;-71
2023/12/03 11:03:41;;;;;;;47.53;20.00;;;;;;;;;;5094640;28;20024;-72
2023/12/03 11:06:12;;;;;;;37.97;15.23;;;4.70;93.70;;;;;;5094068;28;20099;-72
2023/12/03 11:08:39;;;;;;;47.00;21.25;;;4.80;93.10;;;;;;5094787;28;20028;-71
2023/12/03 11:11:08;;;;;;;27.48;11.77;;;4.50;99.90;;;;;;5094534;28;20047;-71
2023/12/03 11:13:35;;;;;;;78.10;26.85;;;4.80;91.90;;;;;;5094466;28;20020;-72
2023/12/03 11:16:03;;;;;;;76.93;27.38;;;4.70;91.20;;;;;;5094117;28;20046;-73
2023/12/03 11:18:30;;;;;;;33.63;16.17;;;4.80;91.60;;;;;;5089674;28;20020;-74
2023/12/03 11:21:10;;;;;;;59.20;23.65;;;4.60;91.60;;;;;;5088027;28;20024;-72
2023/12/03 11:23:36;;;;;;;35.97;15.10;;;;;;;;;;5094213;28;20020;-74
2023/12/03 11:26:12;;;;;;;24.13;10.70;;;4.40;98.30;;;;;;5094404;28;20474;-72
2023/12/03 11:28:55;;;;;;;26.35;12.57;;;4.40;98.10;;;;;;5094291;28;20024;-73
2023/12/03 11:31:24;;;;;;;28.40;12.65;;;4.40;90.60;;;;;;5093445;28;20110;-73
2023/12/03 11:33:58;;;;;;;21.45;9.15;;;4.30;90.10;;;;;;5093731;28;20055;-73
2023/12/03 11:36:49;;;;;;;33.15;14.48;;;4.10;95.90;;;;;;5094275;28;20118;-70
2023/12/03 11:39:15;;;;;;;39.15;15.52;;;;;;;;;;5094287;28;20031;-73
2023/12/03 11:41:44;;;;;;;60.75;22.40;;;5.10;98.60;;;;;;5077342;28;20035;-71
2023/12/03 11:44:18;;;;;;;36.30;11.75;;;4.50;99.50;;;;;;5093418;28;20016;-72
2023/12/03 11:46:50;;;;;;;26.17;11.25;;;4.90;99.90;;;;;;5093501;28;20070;-73
2023/12/03 11:49:17;;;;;;;35.08;12.40;;;4.50;91.40;;;;;;5092702;28;20046;-71
2023/12/03 11:51:47;;;;;;;37.35;14.27;;;4.50;91.80;;;;;;5092907;28;20028;-72
2023/12/03 11:54:20;;;;;;;29.17;11.98;;;4.50;91.50;;;;;;5090099;28;20103;-72
2023/12/03 11:56:47;;;;;;;26.65;11.38;;;;;;;;;;5092988;28;20028;-71
2023/12/03 11:59:14;;;;;;;33.30;12.20;;;4.50;90.10;;;;;;5093590;28;20024;-73
2023/12/03 12:01:40;;;;;;;38.85;13.50;;;;;;;;;;5092956;28;20450;-73
2023/12/03 12:04:06;;;;;;;21.15;10.90;;;;;;;;;;5093733;28;20362;-73
2023/12/03 12:06:34;;;;;;;34.85;13.32;;;;;;;;;;5093486;28;20351;-72
2023/12/03 12:09:11;;;;;;;33.38;13.95;;;4.80;90.20;;;;;;5093583;28;20024;-72
2023/12/03 12:11:37;;;;;;;23.98;10.93;;;4.80;90.00;;;;;;5093783;28;20155;-74
2023/12/03 12:14:04;;;;;;;30.45;13.02;;;4.50;96.60;;;;;;5093157;28;20043;-71
2023/12/03 12:16:30;;;;;;;31.02;13.02;;;;;;;;;;5093832;28;20031;-73
2023/12/03 12:18:56;;;;;;;31.20;11.30;;;;;;;;;;5093379;28;20031;-72
2023/12/03 12:21:22;;;;;;;27.67;11.52;;;;;;;;;;5092724;28;20040;-73
2023/12/03 12:23:48;;;;;;;29.05;12.20;;;;;;;;;;5091553;28;20013;-73
2023/12/03 12:26:15;;;;;;;35.28;13.23;;;;;;;;;;5082266;28;20091;-72
2023/12/03 12:28:41;;;;;;;27.42;11.13;;;4.80;87.10;;;;;;5075498;28;20021;-74
2023/12/03 12:31:11;;;;;;;27.85;12.35;;;4.90;88.60;;;;;;5107017;28;20023;-73
2023/12/03 12:33:38;;;;;;;28.65;12.13;;;5.00;93.70;;;;;;5101202;28;20104;-71
2023/12/03 12:36:04;;;;;;;25.85;10.63;;;;;;;;;;5093684;28;20031;-72
2023/12/03 12:38:42;;;;;;;21.55;9.18;;;4.40;85.20;;;;;;5093342;28;20024;-73
2023/12/03 12:41:09;;;;;;;28.98;10.60;;;;;;;;;;5078417;28;20478;-73
2023/12/03 12:43:35;;;;;;;34.72;13.05;;;;;;;;;;5094252;28;20059;-74
2023/12/03 12:46:09;;;;;;;28.08;10.40;;;4.40;84.10;;;;;;5095404;28;20024;-74
2023/12/03 12:48:35;;;;;;;31.02;12.63;;;;;;;;;;5076215;28;20584;-73
2023/12/03 12:51:01;;;;;;;39.97;15.27;;;;;;;;;;5093609;28;20028;-73
2023/12/03 12:53:58;;;;;;;27.00;10.98;;;4.20;83.80;;;;;;5063484;28;20025;-72
2023/12/03 12:56:24;;;;;;;29.27;12.50;;;;;;;;;;5092274;28;20072;-74
2023/12/03 12:58:51;;;;;;;28.02;11.88;;;;;;;;;;5096349;28;20027;-73
2023/12/03 13:01:18;;;;;;;20.88;9.10;;;;;;;;;;5096345;28;20044;-73
2023/12/03 13:03:44;;;;;;;27.88;11.80;;;;;;;;;;5096032;28;20046;-72
2023/12/03 13:06:10;;;;;;;40.92;16.90;;;;;;;;;;5096259;28;20024;-73
2023/12/03 13:08:37;;;;;;;45.63;18.27;;;;;;;;;;5094897;28;20077;-73
2023/12/03 13:11:03;;;;;;;58.80;22.98;;;;;;;;;;5096069;28;20023;-74